Terminal Aerodrome Forecast
Issued by NWS Chicago, IL

Home | Current Version | Previous Version | Text Only | Print | Product List | Glossary Off
Versions: 1 2 3 4 5 6 7 8 9 10 11 12 13 14 15 16 17 18 19 20 21 22 23 24 25 26 27 28 29 30

000
FTUS43 KLOT 210800 AAA
TAFRFD
TAF AMD
KRFD 210858Z 2109/2206 20006KT P6SM BKN100 OVC180
     FM211400 22006KT P6SM SCT050 BKN100 OVC150
     FM211700 25011G16KT P6SM VCSH BKN050 OVC090
     FM211900 26011G17KT 5SM SHRA BKN050 OVC090
      TEMPO 2120/2123 3SM TSRA BKN035CB
     FM220000 33010KT P6SM SCT040=

USA.gov is the U.S. government's official web portal to all federal, state and local government web resources and services.